sensor_id;sensor_type;location;lat;lon;timestamp;pressure;altitude;pressure_sealevel;temperature;humidity
55916;BME280;41826;53.246;-6.670;2022-10-15T00:00:43;98956.09;;;8.75;100.00
55916;BME280;41826;53.246;-6.670;2022-10-15T00:03:09;98945.94;;;8.80;100.00
55916;BME280;41826;53.246;-6.670;2022-10-15T00:05:38;98929.22;;;8.81;100.00
55916;BME280;41826;53.246;-6.670;2022-10-15T00:08:05;98920.56;;;8.80;100.00
55916;BME280;41826;53.246;-6.670;2022-10-15T00:10:30;98923.66;;;8.84;100.00
55916;BME280;41826;53.246;-6.670;2022-10-15T00:12:56;98911.69;;;8.89;100.00
55916;BME280;41826;53.246;-6.670;2022-10-15T00:15:21;98909.94;;;8.82;100.00
55916;BME280;41826;53.246;-6.670;2022-10-15T00:17:47;98916.78;;;8.83;100.00
55916;BME280;41826;53.246;-6.670;2022-10-15T00:20:12;98909.94;;;8.82;100.00
55916;BME280;41826;53.246;-6.670;2022-10-15T00:22:38;98901.56;;;8.86;100.00
55916;BME280;41826;53.246;-6.670;2022-10-15T00:25:04;98898.13;;;8.86;100.00
55916;BME280;41826;53.246;-6.670;2022-10-15T00:27:30;98916.28;;;8.87;100.00
55916;BME280;41826;53.246;-6.670;2022-10-15T00:29:55;98920.16;;;8.92;100.00
55916;BME280;41826;53.246;-6.670;2022-10-15T00:32:21;98919.81;;;8.95;100.00
55916;BME280;41826;53.246;-6.670;2022-10-15T00:34:46;98919.44;;;8.98;100.00
55916;BME280;41826;53.246;-6.670;2022-10-15T00:37:11;98902.75;;;8.99;100.00
55916;BME280;41826;53.246;-6.670;2022-10-15T00:39:37;98909.25;;;9.03;100.00
55916;BME280;41826;53.246;-6.670;2022-10-15T00:42:02;98903.50;;;9.07;100.00
55916;BME280;41826;53.246;-6.670;2022-10-15T00:47:05;98890.06;;;9.10;100.00
55916;BME280;41826;53.246;-6.670;2022-10-15T00:49:39;98886.63;;;9.10;100.00
55916;BME280;41826;53.246;-6.670;2022-10-15T00:54:37;98888.06;;;9.13;100.00
55916;BME280;41826;53.246;-6.670;2022-10-15T00:57:06;98874.63;;;9.16;100.00
55916;BME280;41826;53.246;-6.670;2022-10-15T00:59:34;98866.13;;;9.14;100.00
55916;BME280;41826;53.246;-6.670;2022-10-15T01:02:01;98863.34;;;9.15;100.00
55916;BME280;41826;53.246;-6.670;2022-10-15T01:04:28;98858.56;;;9.19;100.00
55916;BME280;41826;53.246;-6.670;2022-10-15T01:06:54;98853.31;;;9.19;100.00
55916;BME280;41826;53.246;-6.670;2022-10-15T01:09:20;98843.31;;;9.22;100.00
55916;BME280;41826;53.246;-6.670;2022-10-15T01:11:50;98835.47;;;9.22;100.00
55916;BME280;41826;53.246;-6.670;2022-10-15T01:17:20;98827.88;;;9.27;100.00
55916;BME280;41826;53.246;-6.670;2022-10-15T01:34:10;98779.09;;;9.41;100.00
55916;BME280;41826;53.246;-6.670;2022-10-15T01:37:59;98768.63;;;9.41;100.00
55916;BME280;41826;53.246;-6.670;2022-10-15T01:40:59;98763.00;;;9.44;100.00
55916;BME280;41826;53.246;-6.670;2022-10-15T01:43:10;98750.75;;;9.45;100.00
55916;BME280;41826;53.246;-6.670;2022-10-15T01:45:39;98754.81;;;9.47;100.00
55916;BME280;41826;53.246;-6.670;2022-10-15T01:48:10;98737.91;;;9.50;100.00
55916;BME280;41826;53.246;-6.670;2022-10-15T01:50:41;98744.59;;;9.52;100.00
55916;BME280;41826;53.246;-6.670;2022-10-15T01:53:10;98737.34;;;9.54;100.00
55916;BME280;41826;53.246;-6.670;2022-10-15T01:55:36;98734.53;;;9.56;100.00
55916;BME280;41826;53.246;-6.670;2022-10-15T01:58:05;98720.06;;;9.60;100.00
55916;BME280;41826;53.246;-6.670;2022-10-15T02:00:32;98716.28;;;9.63;100.00
55916;BME280;41826;53.246;-6.670;2022-10-15T02:03:01;98717.50;;;9.67;100.00
55916;BME280;41826;53.246;-6.670;2022-10-15T02:05:31;98724.38;;;9.68;100.00
55916;BME280;41826;53.246;-6.670;2022-10-15T02:10:30;98715.91;;;9.66;100.00
55916;BME280;41826;53.246;-6.670;2022-10-15T02:13:18;98708.03;;;9.66;100.00
55916;BME280;41826;53.246;-6.670;2022-10-15T02:16:36;98710.03;;;9.64;100.00
55916;BME280;41826;53.246;-6.670;2022-10-15T02:19:02;98708.78;;;9.60;100.00
55916;BME280;41826;53.246;-6.670;2022-10-15T02:21:52;98715.22;;;9.57;100.00
55916;BME280;41826;53.246;-6.670;2022-10-15T02:24:23;98709.69;;;9.52;100.00
55916;BME280;41826;53.246;-6.670;2022-10-15T02:26:52;98700.78;;;9.46;100.00
55916;BME280;41826;53.246;-6.670;2022-10-15T02:29:21;98703.34;;;9.40;100.00
55916;BME280;41826;53.246;-6.670;2022-10-15T02:31:48;98716.06;;;9.43;100.00
55916;BME280;41826;53.246;-6.670;2022-10-15T02:34:20;98691.59;;;9.36;100.00
55916;BME280;41826;53.246;-6.670;2022-10-15T02:36:46;98710.63;;;9.44;100.00
55916;BME280;41826;53.246;-6.670;2022-10-15T02:39:22;98706.97;;;9.60;100.00
55916;BME280;41826;53.246;-6.670;2022-10-15T02:41:49;98707.63;;;9.62;100.00
55916;BME280;41826;53.246;-6.670;2022-10-15T02:44:15;98711.88;;;9.48;100.00
55916;BME280;41826;53.246;-6.670;2022-10-15T02:46:40;98717.13;;;9.48;100.00
55916;BME280;41826;53.246;-6.670;2022-10-15T02:49:06;98712.94;;;9.54;100.00
55916;BME280;41826;53.246;-6.670;2022-10-15T02:51:33;98718.22;;;9.39;100.00
55916;BME280;41826;53.246;-6.670;2022-10-15T02:53:59;98713.63;;;9.41;100.00
55916;BME280;41826;53.246;-6.670;2022-10-15T02:56:24;98715.56;;;9.18;100.00
55916;BME280;41826;53.246;-6.670;2022-10-15T02:58:50;98713.06;;;9.46;100.00
55916;BME280;41826;53.246;-6.670;2022-10-15T03:01:16;98692.56;;;8.98;100.00
55916;BME280;41826;53.246;-6.670;2022-10-15T03:03:41;98612.84;;;8.94;100.00
55916;BME280;41826;53.246;-6.670;2022-10-15T03:06:07;98616.66;;;8.62;100.00
55916;BME280;41826;53.246;-6.670;2022-10-15T03:08:32;98618.06;;;8.94;100.00
55916;BME280;41826;53.246;-6.670;2022-10-15T03:11:01;98635.81;;;9.35;100.00
55916;BME280;41826;53.246;-6.670;2022-10-15T03:13:27;98658.38;;;9.36;100.00
55916;BME280;41826;53.246;-6.670;2022-10-15T03:15:53;98651.66;;;8.61;100.00
55916;BME280;41826;53.246;-6.670;2022-10-15T03:18:19;98640.53;;;8.29;100.00
55916;BME280;41826;53.246;-6.670;2022-10-15T03:20:52;98641.09;;;8.84;100.00
55916;BME280;41826;53.246;-6.670;2022-10-15T03:23:17;98669.94;;;8.90;100.00
55916;BME280;41826;53.246;-6.670;2022-10-15T03:25:43;98633.09;;;8.41;100.00
55916;BME280;41826;53.246;-6.670;2022-10-15T03:28:08;98643.53;;;8.71;100.00
55916;BME280;41826;53.246;-6.670;2022-10-15T03:30:33;98634.03;;;8.10;100.00
55916;BME280;41826;53.246;-6.670;2022-10-15T03:32:59;98652.19;;;8.41;100.00
55916;BME280;41826;53.246;-6.670;2022-10-15T03:35:24;98662.44;;;8.28;100.00
55916;BME280;41826;53.246;-6.670;2022-10-15T03:37:49;98668.53;;;8.06;100.00
55916;BME280;41826;53.246;-6.670;2022-10-15T03:40:15;98662.06;;;7.78;100.00
55916;BME280;41826;53.246;-6.670;2022-10-15T03:42:40;98661.53;;;7.83;100.00
55916;BME280;41826;53.246;-6.670;2022-10-15T03:45:06;98653.75;;;7.98;100.00
55916;BME280;41826;53.246;-6.670;2022-10-15T03:47:32;98653.06;;;7.81;100.00
55916;BME280;41826;53.246;-6.670;2022-10-15T03:49:57;98646.19;;;7.65;100.00
55916;BME280;41826;53.246;-6.670;2022-10-15T03:52:22;98643.50;;;7.73;100.00
55916;BME280;41826;53.246;-6.670;2022-10-15T03:54:48;98641.00;;;7.80;100.00
55916;BME280;41826;53.246;-6.670;2022-10-15T03:57:13;98641.59;;;7.67;100.00
55916;BME280;41826;53.246;-6.670;2022-10-15T03:59:38;98641.06;;;7.49;100.00
55916;BME280;41826;53.246;-6.670;2022-10-15T04:02:04;98636.25;;;7.60;100.00
55916;BME280;41826;53.246;-6.670;2022-10-15T04:04:29;98643.09;;;7.62;100.00
55916;BME280;41826;53.246;-6.670;2022-10-15T04:06:55;98642.75;;;7.42;100.00
55916;BME280;41826;53.246;-6.670;2022-10-15T04:09:20;98648.50;;;7.37;100.00
55916;BME280;41826;53.246;-6.670;2022-10-15T04:11:46;98645.91;;;7.29;100.00
55916;BME280;41826;53.246;-6.670;2022-10-15T04:14:11;98642.16;;;7.31;100.00
55916;BME280;41826;53.246;-6.670;2022-10-15T04:16:36;98647.38;;;7.54;100.00
55916;BME280;41826;53.246;-6.670;2022-10-15T04:19:02;98654.47;;;7.46;100.00
55916;BME280;41826;53.246;-6.670;2022-10-15T04:21:27;98652.38;;;7.41;100.00
55916;BME280;41826;53.246;-6.670;2022-10-15T04:23:53;98648.66;;;7.35;100.00
55916;BME280;41826;53.246;-6.670;2022-10-15T04:26:18;98637.69;;;7.17;100.00
55916;BME280;41826;53.246;-6.670;2022-10-15T04:28:46;98647.06;;;7.34;100.00
55916;BME280;41826;53.246;-6.670;2022-10-15T04:31:12;98634.72;;;7.20;100.00
55916;BME280;41826;53.246;-6.670;2022-10-15T04:33:38;98632.19;;;7.12;100.00
55916;BME280;41826;53.246;-6.670;2022-10-15T04:36:05;98635.47;;;7.06;100.00
55916;BME280;41826;53.246;-6.670;2022-10-15T04:38:31;98632.81;;;7.14;100.00
55916;BME280;41826;53.246;-6.670;2022-10-15T04:41:04;98636.63;;;7.26;100.00
55916;BME280;41826;53.246;-6.670;2022-10-15T04:43:31;98642.81;;;7.33;100.00
55916;BME280;41826;53.246;-6.670;2022-10-15T04:45:58;98639.59;;;7.23;100.00
55916;BME280;41826;53.246;-6.670;2022-10-15T04:48:24;98646.50;;;7.16;100.00
55916;BME280;41826;53.246;-6.670;2022-10-15T04:50:49;98640.81;;;7.12;100.00
55916;BME280;41826;53.246;-6.670;2022-10-15T04:53:15;98651.56;;;6.86;100.00
55916;BME280;41826;53.246;-6.670;2022-10-15T04:55:40;98651.22;;;6.89;100.00
55916;BME280;41826;53.246;-6.670;2022-10-15T04:58:05;98638.66;;;6.85;100.00
55916;BME280;41826;53.246;-6.670;2022-10-15T05:00:31;98646.84;;;6.82;100.00
55916;BME280;41826;53.246;-6.670;2022-10-15T05:02:56;98656.59;;;6.88;100.00
55916;BME280;41826;53.246;-6.670;2022-10-15T05:05:22;98654.03;;;6.80;100.00
55916;BME280;41826;53.246;-6.670;2022-10-15T05:07:47;98653.38;;;6.78;100.00
55916;BME280;41826;53.246;-6.670;2022-10-15T05:10:12;98650.84;;;6.53;100.00
55916;BME280;41826;53.246;-6.670;2022-10-15T05:12:38;98659.97;;;6.57;100.00
55916;BME280;41826;53.246;-6.670;2022-10-15T05:15:03;98655.25;;;6.53;100.00
55916;BME280;41826;53.246;-6.670;2022-10-15T05:17:29;98656.38;;;6.58;100.00
55916;BME280;41826;53.246;-6.670;2022-10-15T05:19:55;98659.19;;;6.48;100.00
55916;BME280;41826;53.246;-6.670;2022-10-15T05:22:20;98649.69;;;6.56;100.00
55916;BME280;41826;53.246;-6.670;2022-10-15T05:24:45;98654.91;;;6.56;100.00
55916;BME280;41826;53.246;-6.670;2022-10-15T05:27:11;98662.53;;;6.73;100.00
55916;BME280;41826;53.246;-6.670;2022-10-15T05:29:36;98660.13;;;6.95;100.00
55916;BME280;41826;53.246;-6.670;2022-10-15T05:32:04;98664.28;;;6.81;100.00
55916;BME280;41826;53.246;-6.670;2022-10-15T05:34:29;98658.69;;;6.92;100.00
55916;BME280;41826;53.246;-6.670;2022-10-15T05:36:55;98654.38;;;6.77;100.00
55916;BME280;41826;53.246;-6.670;2022-10-15T05:39:20;98644.41;;;6.80;100.00
55916;BME280;41826;53.246;-6.670;2022-10-15T05:41:46;98653.84;;;6.81;100.00
55916;BME280;41826;53.246;-6.670;2022-10-15T05:44:11;98656.63;;;6.80;100.00
55916;BME280;41826;53.246;-6.670;2022-10-15T05:46:36;98649.50;;;6.73;100.00
55916;BME280;41826;53.246;-6.670;2022-10-15T05:49:04;98658.94;;;6.75;100.00
55916;BME280;41826;53.246;-6.670;2022-10-15T05:51:30;98663.59;;;6.87;100.00
55916;BME280;41826;53.246;-6.670;2022-10-15T05:53:56;98666.25;;;6.79;100.00
55916;BME280;41826;53.246;-6.670;2022-10-15T05:56:22;98667.81;;;6.88;100.00
55916;BME280;41826;53.246;-6.670;2022-10-15T05:58:48;98675.34;;;6.83;100.00
55916;BME280;41826;53.246;-6.670;2022-10-15T06:01:13;98678.59;;;6.85;100.00
55916;BME280;41826;53.246;-6.670;2022-10-15T06:03:39;98673.28;;;6.70;100.00
55916;BME280;41826;53.246;-6.670;2022-10-15T06:06:25;98670.34;;;6.65;100.00
55916;BME280;41826;53.246;-6.670;2022-10-15T06:08:52;98670.97;;;6.76;100.00
55916;BME280;41826;53.246;-6.670;2022-10-15T06:11:18;98675.88;;;6.79;100.00
55916;BME280;41826;53.246;-6.670;2022-10-15T06:13:45;98669.00;;;6.78;100.00
55916;BME280;41826;53.246;-6.670;2022-10-15T06:16:12;98671.47;;;6.79;100.00
55916;BME280;41826;53.246;-6.670;2022-10-15T06:18:38;98676.06;;;6.69;100.00
55916;BME280;41826;53.246;-6.670;2022-10-15T06:21:05;98664.09;;;6.83;100.00
55916;BME280;41826;53.246;-6.670;2022-10-15T06:23:31;98651.22;;;6.89;100.00
55916;BME280;41826;53.246;-6.670;2022-10-15T06:26:01;98641.78;;;6.80;100.00
55916;BME280;41826;53.246;-6.670;2022-10-15T06:28:27;98642.28;;;6.84;100.00
55916;BME280;41826;53.246;-6.670;2022-10-15T06:30:52;98630.03;;;6.84;100.00
55916;BME280;41826;53.246;-6.670;2022-10-15T06:33:18;98639.97;;;6.89;100.00
55916;BME280;41826;53.246;-6.670;2022-10-15T06:35:43;98632.75;;;6.99;100.00
55916;BME280;41826;53.246;-6.670;2022-10-15T06:38:09;98633.81;;;6.82;100.00
55916;BME280;41826;53.246;-6.670;2022-10-15T06:40:36;98648.66;;;6.73;100.00
55916;BME280;41826;53.246;-6.670;2022-10-15T06:43:05;98651.25;;;6.73;100.00
55916;BME280;41826;53.246;-6.670;2022-10-15T06:45:32;98642.75;;;6.87;100.00
55916;BME280;41826;53.246;-6.670;2022-10-15T06:47:58;98645.25;;;6.72;100.00
55916;BME280;41826;53.246;-6.670;2022-10-15T06:50:23;98654.19;;;6.78;100.00
55916;BME280;41826;53.246;-6.670;2022-10-15T06:52:49;98646.91;;;6.65;100.00
55916;BME280;41826;53.246;-6.670;2022-10-15T06:55:14;98636.06;;;6.85;100.00
55916;BME280;41826;53.246;-6.670;2022-10-15T06:57:39;98639.81;;;6.82;100.00
55916;BME280;41826;53.246;-6.670;2022-10-15T07:00:05;98638.50;;;6.86;100.00
55916;BME280;41826;53.246;-6.670;2022-10-15T07:02:31;98638.84;;;6.83;100.00
55916;BME280;41826;53.246;-6.670;2022-10-15T07:04:56;98654.81;;;6.80;100.00
55916;BME280;41826;53.246;-6.670;2022-10-15T07:07:22;98648.13;;;6.86;100.00
55916;BME280;41826;53.246;-6.670;2022-10-15T07:09:47;98640.63;;;6.83;100.00
55916;BME280;41826;53.246;-6.670;2022-10-15T07:12:17;98642.22;;;6.92;100.00
55916;BME280;41826;53.246;-6.670;2022-10-15T07:14:42;98646.97;;;6.88;100.00
55916;BME280;41826;53.246;-6.670;2022-10-15T07:17:08;98649.56;;;6.88;100.00
55916;BME280;41826;53.246;-6.670;2022-10-15T07:19:33;98658.69;;;6.92;100.00
55916;BME280;41826;53.246;-6.670;2022-10-15T07:21:58;98653.56;;;7.07;100.00
55916;BME280;41826;53.246;-6.670;2022-10-15T07:24:24;98644.94;;;7.07;100.00
55916;BME280;41826;53.246;-6.670;2022-10-15T07:26:49;98643.28;;;7.06;100.00
55916;BME280;41826;53.246;-6.670;2022-10-15T07:29:15;98643.22;;;7.14;100.00
55916;BME280;41826;53.246;-6.670;2022-10-15T07:31:43;98644.22;;;7.13;100.00
55916;BME280;41826;53.246;-6.670;2022-10-15T07:34:09;98647.44;;;7.23;100.00
55916;BME280;41826;53.246;-6.670;2022-10-15T07:36:34;98645.25;;;7.35;100.00
55916;BME280;41826;53.246;-6.670;2022-10-15T07:38:59;98631.69;;;7.40;100.00
55916;BME280;41826;53.246;-6.670;2022-10-15T07:41:25;98634.31;;;7.54;100.00
55916;BME280;41826;53.246;-6.670;2022-10-15T07:43:51;98637.34;;;7.66;100.00
55916;BME280;41826;53.246;-6.670;2022-10-15T07:46:18;98624.00;;;7.61;100.00
55916;BME280;41826;53.246;-6.670;2022-10-15T07:48:43;98632.84;;;7.60;100.00
55916;BME280;41826;53.246;-6.670;2022-10-15T07:51:09;98623.75;;;7.71;100.00
55916;BME280;41826;53.246;-6.670;2022-10-15T07:53:35;98630.72;;;7.78;100.00
55916;BME280;41826;53.246;-6.670;2022-10-15T07:56:04;98629.59;;;7.96;100.00
55916;BME280;41826;53.246;-6.670;2022-10-15T07:58:31;98634.38;;;8.07;100.00
55916;BME280;41826;53.246;-6.670;2022-10-15T08:01:02;98634.03;;;8.10;100.00
55916;BME280;41826;53.246;-6.670;2022-10-15T08:03:28;98627.91;;;8.03;100.00
55916;BME280;41826;53.246;-6.670;2022-10-15T08:05:53;98638.88;;;7.98;100.00
55916;BME280;41826;53.246;-6.670;2022-10-15T08:08:20;98637.44;;;7.96;100.00
55916;BME280;41826;53.246;-6.670;2022-10-15T08:10:46;98637.72;;;8.01;100.00
55916;BME280;41826;53.246;-6.670;2022-10-15T08:13:12;98646.91;;;8.12;100.00
55916;BME280;41826;53.246;-6.670;2022-10-15T08:15:38;98657.09;;;8.21;100.00
55916;BME280;41826;53.246;-6.670;2022-10-15T08:18:04;98657.09;;;8.21;100.00
55916;BME280;41826;53.246;-6.670;2022-10-15T08:20:29;98655.84;;;8.17;100.00
55916;BME280;41826;53.246;-6.670;2022-10-15T08:22:55;98654.50;;;8.21;100.00
55916;BME280;41826;53.246;-6.670;2022-10-15T08:25:20;98654.63;;;8.43;100.00
55916;BME280;41826;53.246;-6.670;2022-10-15T08:27:46;98657.50;;;8.48;100.00
55916;BME280;41826;53.246;-6.670;2022-10-15T08:30:11;98654.47;;;8.59;100.00
55916;BME280;41826;53.246;-6.670;2022-10-15T08:32:36;98643.88;;;8.67;100.00
55916;BME280;41826;53.246;-6.670;2022-10-15T08:35:02;98649.66;;;8.63;100.00
55916;BME280;41826;53.246;-6.670;2022-10-15T08:37:27;98639.13;;;8.71;100.00
55916;BME280;41826;53.246;-6.670;2022-10-15T08:39:52;98642.66;;;8.63;100.00
55916;BME280;41826;53.246;-6.670;2022-10-15T08:42:21;98628.66;;;8.56;100.00
55916;BME280;41826;53.246;-6.670;2022-10-15T08:44:57;98632.91;;;8.57;100.00
55916;BME280;41826;53.246;-6.670;2022-10-15T08:47:29;98632.63;;;8.52;100.00
55916;BME280;41826;53.246;-6.670;2022-10-15T08:50:11;98629.34;;;8.80;100.00
55916;BME280;41826;53.246;-6.670;2022-10-15T08:52:42;98618.66;;;8.96;100.00
55916;BME280;41826;53.246;-6.670;2022-10-15T08:55:11;98611.72;;;9.03;100.00
55916;BME280;41826;53.246;-6.670;2022-10-15T08:57:44;98626.94;;;9.15;100.00
55916;BME280;41826;53.246;-6.670;2022-10-15T09:00:49;98630.31;;;9.30;100.00
55916;BME280;41826;53.246;-6.670;2022-10-15T09:03:37;98639.88;;;9.38;100.00
55916;BME280;41826;53.246;-6.670;2022-10-15T09:06:27;98662.00;;;9.35;100.00
55916;BME280;41826;53.246;-6.670;2022-10-15T09:09:17;98651.44;;;9.28;100.00
55916;BME280;41826;53.246;-6.670;2022-10-15T09:14:41;98673.97;;;9.44;100.00
55916;BME280;41826;53.246;-6.670;2022-10-15T09:17:22;98669.19;;;9.11;100.00
55916;BME280;41826;53.246;-6.670;2022-10-15T09:19:52;98656.88;;;9.27;100.00
55916;BME280;41826;53.246;-6.670;2022-10-15T09:22:28;98651.38;;;9.22;100.00
55916;BME280;41826;53.246;-6.670;2022-10-15T09:24:55;98647.63;;;9.09;100.00
55916;BME280;41826;53.246;-6.670;2022-10-15T09:27:39;98640.66;;;9.17;100.00
55916;BME280;41826;53.246;-6.670;2022-10-15T09:30:17;98653.84;;;9.08;100.00
55916;BME280;41826;53.246;-6.670;2022-10-15T09:32:57;98651.50;;;8.99;100.00
55916;BME280;41826;53.246;-6.670;2022-10-15T09:35:37;98646.47;;;8.97;100.00
55916;BME280;41826;53.246;-6.670;2022-10-15T09:43:43;98639.78;;;9.09;100.00
55916;BME280;41826;53.246;-6.670;2022-10-15T09:46:09;98621.34;;;9.18;100.00
55916;BME280;41826;53.246;-6.670;2022-10-15T09:48:40;98631.72;;;9.11;100.00
55916;BME280;41826;53.246;-6.670;2022-10-15T09:53:47;98614.81;;;9.50;100.00
55916;BME280;41826;53.246;-6.670;2022-10-15T09:56:17;98619.91;;;9.37;100.00
55916;BME280;41826;53.246;-6.670;2022-10-15T09:58:53;98608.00;;;9.34;100.00
55916;BME280;41826;53.246;-6.670;2022-10-15T10:01:24;98607.31;;;9.25;100.00
55916;BME280;41826;53.246;-6.670;2022-10-15T10:06:49;98606.81;;;9.37;100.00
55916;BME280;41826;53.246;-6.670;2022-10-15T10:09:19;98596.03;;;9.46;100.00
55916;BME280;41826;53.246;-6.670;2022-10-15T10:11:48;98589.66;;;9.34;100.00
55916;BME280;41826;53.246;-6.670;2022-10-15T10:14:23;98590.53;;;9.41;100.00
55916;BME280;41826;53.246;-6.670;2022-10-15T10:17:09;98599.88;;;9.29;100.00
55916;BME280;41826;53.246;-6.670;2022-10-15T10:19:38;98591.16;;;9.43;100.00
55916;BME280;41826;53.246;-6.670;2022-10-15T10:22:19;98586.97;;;9.49;100.00
55916;BME280;41826;53.246;-6.670;2022-10-15T10:24:46;98589.81;;;9.47;100.00
55916;BME280;41826;53.246;-6.670;2022-10-15T10:27:23;98587.53;;;9.66;100.00
55916;BME280;41826;53.246;-6.670;2022-10-15T10:30:12;98575.63;;;9.42;100.00
55916;BME280;41826;53.246;-6.670;2022-10-15T10:32:38;98577.94;;;9.51;100.00
55916;BME280;41826;53.246;-6.670;2022-10-15T10:35:04;98573.81;;;9.64;100.00
55916;BME280;41826;53.246;-6.670;2022-10-15T10:37:41;98570.72;;;9.82;100.00
55916;BME280;41826;53.246;-6.670;2022-10-15T10:42:45;98571.97;;;9.86;100.00
55916;BME280;41826;53.246;-6.670;2022-10-15T10:45:21;98565.84;;;10.07;100.00
55916;BME280;41826;53.246;-6.670;2022-10-15T10:47:48;98562.88;;;10.16;100.00
55916;BME280;41826;53.246;-6.670;2022-10-15T10:50:32;98558.53;;;10.30;100.00
55916;BME280;41826;53.246;-6.670;2022-10-15T10:53:11;98553.94;;;10.46;100.00
55916;BME280;41826;53.246;-6.670;2022-10-15T10:55:38;98555.81;;;10.52;100.00
55916;BME280;41826;53.246;-6.670;2022-10-15T10:58:08;98550.56;;;10.52;100.00
55916;BME280;41826;53.246;-6.670;2022-10-15T11:00:44;98549.63;;;10.66;100.00
55916;BME280;41826;53.246;-6.670;2022-10-15T11:03:29;98555.06;;;10.65;100.00
55916;BME280;41826;53.246;-6.670;2022-10-15T11:09:05;98542.56;;;10.73;100.00
55916;BME280;41826;53.246;-6.670;2022-10-15T11:11:45;98546.81;;;10.81;100.00
55916;BME280;41826;53.246;-6.670;2022-10-15T11:17:35;98546.59;;;10.76;100.00
55916;BME280;41826;53.246;-6.670;2022-10-15T11:20:24;98544.59;;;10.71;100.00
55916;BME280;41826;53.246;-6.670;2022-10-15T11:23:23;98541.13;;;10.71;100.00
55916;BME280;41826;53.246;-6.670;2022-10-15T11:28:55;98527.66;;;10.94;100.00
55916;BME280;41826;53.246;-6.670;2022-10-15T11:34:30;98528.91;;;11.11;100.00
55916;BME280;41826;53.246;-6.670;2022-10-15T11:37:21;98523.66;;;11.11;100.00
55916;BME280;41826;53.246;-6.670;2022-10-15T11:40:05;98518.03;;;11.14;100.00
55916;BME280;41826;53.246;-6.670;2022-10-15T11:48:06;98513.78;;;11.33;100.00
55916;BME280;41826;53.246;-6.670;2022-10-15T11:50:40;98509.53;;;11.39;100.00
55916;BME280;41826;53.246;-6.670;2022-10-15T11:55:54;98513.19;;;11.38;100.00
55916;BME280;41826;53.246;-6.670;2022-10-15T12:00:55;98513.13;;;11.64;100.00
55916;BME280;41826;53.246;-6.670;2022-10-15T12:03:28;98520.25;;;11.50;100.00
55916;BME280;41826;53.246;-6.670;2022-10-15T12:06:13;98505.69;;;11.41;100.00
55916;BME280;41826;53.246;-6.670;2022-10-15T12:08:41;98499.44;;;11.22;100.00
55916;BME280;41826;53.246;-6.670;2022-10-15T12:21:39;98513.16;;;11.11;100.00
55916;BME280;41826;53.246;-6.670;2022-10-15T12:27:21;98524.47;;;11.18;100.00
55916;BME280;41826;53.246;-6.670;2022-10-15T12:29:52;98546.84;;;10.88;100.00
55916;BME280;41826;53.246;-6.670;2022-10-15T12:32:45;98551.59;;;10.23;100.00
55916;BME280;41826;53.246;-6.670;2022-10-15T12:37:42;98536.75;;;10.30;100.00
55916;BME280;41826;53.246;-6.670;2022-10-15T12:43:13;98497.22;;;10.31;100.00
55916;BME280;41826;53.246;-6.670;2022-10-15T12:45:48;98469.31;;;10.24;100.00
55916;BME280;41826;53.246;-6.670;2022-10-15T12:50:40;98452.06;;;10.43;100.00
55916;BME280;41826;53.246;-6.670;2022-10-15T12:55:37;98456.97;;;10.11;100.00
55916;BME280;41826;53.246;-6.670;2022-10-15T12:58:32;98469.19;;;9.90;100.00
55916;BME280;41826;53.246;-6.670;2022-10-15T13:03:57;98463.81;;;10.12;100.00
55916;BME280;41826;53.246;-6.670;2022-10-15T13:06:29;98462.19;;;10.04;100.00
55916;BME280;41826;53.246;-6.670;2022-10-15T13:16:35;98451.75;;;10.17;100.00
55916;BME280;41826;53.246;-6.670;2022-10-15T13:19:01;98430.00;;;10.24;100.00
55916;BME280;41826;53.246;-6.670;2022-10-15T13:24:16;98425.84;;;10.49;100.00
55916;BME280;41826;53.246;-6.670;2022-10-15T13:26:42;98430.69;;;10.52;100.00
55916;BME280;41826;53.246;-6.670;2022-10-15T13:29:14;98411.13;;;10.48;100.00
55916;BME280;41826;53.246;-6.670;2022-10-15T13:31:40;98398.03;;;10.61;100.00
55916;BME280;41826;53.246;-6.670;2022-10-15T13:34:26;98397.44;;;10.79;100.00
55916;BME280;41826;53.246;-6.670;2022-10-15T13:36:55;98385.13;;;10.87;100.00
55916;BME280;41826;53.246;-6.670;2022-10-15T13:39:33;98386.31;;;10.91;100.00
55916;BME280;41826;53.246;-6.670;2022-10-15T13:42:14;98381.25;;;10.96;100.00
55916;BME280;41826;53.246;-6.670;2022-10-15T13:44:40;98367.97;;;10.84;100.00
55916;BME280;41826;53.246;-6.670;2022-10-15T13:47:25;98363.50;;;10.98;100.00
55916;BME280;41826;53.246;-6.670;2022-10-15T13:52:43;98356.63;;;10.83;100.00
55916;BME280;41826;53.246;-6.670;2022-10-15T13:55:16;98345.94;;;10.85;100.00
55916;BME280;41826;53.246;-6.670;2022-10-15T13:57:44;98340.28;;;10.88;100.00
55916;BME280;41826;53.246;-6.670;2022-10-15T14:00:22;98339.66;;;11.13;100.00
55916;BME280;41826;53.246;-6.670;2022-10-15T14:03:11;98333.19;;;11.09;100.00
55916;BME280;41826;53.246;-6.670;2022-10-15T14:05:38;98326.94;;;11.03;100.00
55916;BME280;41826;53.246;-6.670;2022-10-15T14:08:04;98315.41;;;11.17;100.00
55916;BME280;41826;53.246;-6.670;2022-10-15T14:10:30;98307.94;;;11.14;100.00
55916;BME280;41826;53.246;-6.670;2022-10-15T14:12:56;98317.25;;;11.03;100.00
55916;BME280;41826;53.246;-6.670;2022-10-15T14:18:06;98311.56;;;11.13;100.00
55916;BME280;41826;53.246;-6.670;2022-10-15T14:20:31;98318.84;;;11.18;100.00
55916;BME280;41826;53.246;-6.670;2022-10-15T14:22:57;98307.94;;;11.14;100.00
55916;BME280;41826;53.246;-6.670;2022-10-15T14:25:24;98303.25;;;11.30;100.00
55916;BME280;41826;53.246;-6.670;2022-10-15T14:27:50;98291.06;;;11.42;100.00
55916;BME280;41826;53.246;-6.670;2022-10-15T14:30:45;98301.75;;;11.54;100.00
55916;BME280;41826;53.246;-6.670;2022-10-15T14:38:31;98303.16;;;11.56;100.00
55916;BME280;41826;53.246;-6.670;2022-10-15T14:40:58;98291.63;;;11.57;100.00
55916;BME280;41826;53.246;-6.670;2022-10-15T14:43:31;98296.50;;;11.54;100.00
55916;BME280;41826;53.246;-6.670;2022-10-15T14:45:58;98287.38;;;11.56;100.00
55916;BME280;41826;53.246;-6.670;2022-10-15T14:48:32;98299.72;;;11.49;100.00
55916;BME280;41826;53.246;-6.670;2022-10-15T14:51:01;98293.50;;;11.37;100.00
55916;BME280;41826;53.246;-6.670;2022-10-15T14:53:31;98290.94;;;11.30;100.00